La Mesa, New Mexico
Current Conditions -  °F | °C
As of 9:15 AM on Sunday 25 Jan 2015 (Local Time) from KLRU Reporting Station
Clear Clear  
Wind Chill: 44°   Ceiling: Unl
Heat Index: 44°   Visibility: 10mi
Dew Point: 26°   Wind: 0mph
Humidity: 50%   Direction: NA
Pressure: 30.27"   Gusts: NA
Location:  32.12°N, 106.71°W
Report Text: KLRU 251615Z AUTO 00000KT 10SM CLR 07/M03 A3027 RMK AO2 T00661032
Loading
Personal Weather Stations






























Interactive Weather Map New forecast layout! Learn more

10-Day Weather Forecast

Advertisements
Track Severe Weather on mobile